createdAt,value
2023-05-09T00:00:13.706Z,98.10
2023-05-09T00:01:47.175Z,97.21
2023-05-09T00:03:18.878Z,97.11
2023-05-09T00:04:51.582Z,96.30
2023-05-09T00:06:23.293Z,96.63
2023-05-09T00:07:54.921Z,97.13
2023-05-09T00:09:26.597Z,97.08
2023-05-09T00:10:58.259Z,97.08
2023-05-09T00:12:29.912Z,97.51
2023-05-09T00:14:02.480Z,97.76
2023-05-09T00:15:34.175Z,97.74
2023-05-09T00:17:05.780Z,98.18
2023-05-09T00:18:37.944Z,98.76
2023-05-09T00:20:12.316Z,99.08
2023-05-09T00:21:44.350Z,98.87
2023-05-09T00:23:16.748Z,99.18
2023-05-09T00:24:48.943Z,99.06
2023-05-09T00:26:21.750Z,98.46
2023-05-09T00:27:53.405Z,98.55
2023-05-09T00:29:24.988Z,98.47
2023-05-09T00:30:57.105Z,98.44
2023-05-09T00:32:29.253Z,97.95
2023-05-09T00:34:01.001Z,98.05
2023-05-09T00:35:32.979Z,98.08
2023-05-09T00:37:04.594Z,98.19
2023-05-09T00:38:36.344Z,98.27
2023-05-09T00:40:09.232Z,98.54
2023-05-09T00:41:41.056Z,98.17
2023-05-09T00:43:12.734Z,97.50
2023-05-09T00:44:44.320Z,97.71
2023-05-09T00:46:15.946Z,97.43
2023-05-09T00:47:47.897Z,97.42
2023-05-09T00:49:20.057Z,97.46
2023-05-09T00:50:53.070Z,97.83
2023-05-09T00:52:26.022Z,97.93
2023-05-09T00:53:58.513Z,98.14
2023-05-09T00:55:30.262Z,98.36
2023-05-09T00:57:01.814Z,97.99
2023-05-09T00:58:33.412Z,97.71
2023-05-09T01:00:06.204Z,97.59
2023-05-09T01:01:37.889Z,97.55
2023-05-09T01:03:10.103Z,97.84
2023-05-09T01:04:42.182Z,96.95
2023-05-09T01:06:16.921Z,97.52
2023-05-09T01:08:10.467Z,97.79
2023-05-09T01:10:01.714Z,97.86
2023-05-09T01:11:42.547Z,98.22
2023-05-09T01:13:24.211Z,98.74
2023-05-09T01:15:17.309Z,99.03
2023-05-09T01:17:01.881Z,98.50
2023-05-09T01:19:12.379Z,97.46
2023-05-09T01:20:49.876Z,97.70
2023-05-09T01:22:26.780Z,97.64
2023-05-09T01:24:22.686Z,97.10
2023-05-09T01:26:01.967Z,97.33
2023-05-09T01:27:48.536Z,97.49
2023-05-09T01:29:44.667Z,98.04
2023-05-09T01:31:17.364Z,98.13
2023-05-09T01:32:52.151Z,97.42
2023-05-09T01:34:28.599Z,97.63
2023-05-09T01:36:09.801Z,97.83
2023-05-09T01:37:44.650Z,97.55
2023-05-09T01:39:18.068Z,97.80
2023-05-09T01:40:54.392Z,98.03
2023-05-09T01:42:30.971Z,98.27
2023-05-09T01:44:05.201Z,98.17
2023-05-09T01:45:39.002Z,98.21
2023-05-09T01:47:11.744Z,98.31
2023-05-09T01:48:45.057Z,98.45
2023-05-09T01:50:18.678Z,98.54
2023-05-09T01:51:51.244Z,98.66
2023-05-09T01:53:24.695Z,99.02
2023-05-09T01:54:57.794Z,98.96
2023-05-09T01:56:31.778Z,98.98
2023-05-09T01:58:06.194Z,99.19
2023-05-09T01:59:41.991Z,98.94
2023-05-09T02:01:14.838Z,99.23
2023-05-09T02:02:46.777Z,99.27
2023-05-09T02:04:20.882Z,99.44
2023-05-09T02:05:54.612Z,99.65
2023-05-09T02:07:29.330Z,99.51
2023-05-09T02:09:02.088Z,99.48
2023-05-09T02:10:35.356Z,99.39
2023-05-09T02:12:07.147Z,99.12
2023-05-09T02:13:39.162Z,98.89
2023-05-09T02:15:11.185Z,98.96
2023-05-09T02:16:45.806Z,99.27
2023-05-09T02:18:17.415Z,98.47
2023-05-09T02:19:49.001Z,98.57
2023-05-09T02:21:20.632Z,98.38
2023-05-09T02:22:52.351Z,98.57
2023-05-09T02:24:24.634Z,98.47
2023-05-09T02:25:56.624Z,98.21
2023-05-09T02:27:28.500Z,98.21
2023-05-09T02:29:02.836Z,98.46
2023-05-09T02:30:41.994Z,97.95
2023-05-09T02:32:20.782Z,97.12
2023-05-09T02:33:53.445Z,97.48
2023-05-09T02:35:27.402Z,97.80
2023-05-09T02:36:59.494Z,98.04
2023-05-09T02:38:32.633Z,97.84
2023-05-09T02:40:07.656Z,97.96
2023-05-09T02:41:39.406Z,98.01
2023-05-09T02:43:11.181Z,97.95
2023-05-09T02:44:42.762Z,97.99
2023-05-09T02:46:14.410Z,97.56
2023-05-09T02:47:46.093Z,97.53
2023-05-09T02:49:31.447Z,97.26
2023-05-09T02:51:04.853Z,97.19
2023-05-09T02:52:36.504Z,97.34
2023-05-09T02:54:08.936Z,96.93
2023-05-09T02:55:40.527Z,96.79
2023-05-09T02:57:12.188Z,96.98
2023-05-09T02:58:44.297Z,97.63
2023-05-09T03:00:18.005Z,97.61
2023-05-09T03:01:49.681Z,97.39
2023-05-09T03:03:23.354Z,97.46
2023-05-09T03:04:56.567Z,97.83
2023-05-09T03:06:28.250Z,98.00
2023-05-09T03:07:59.866Z,97.88
2023-05-09T03:09:31.618Z,97.87
2023-05-09T03:11:03.252Z,97.60
2023-05-09T03:12:35.300Z,98.13
2023-05-09T03:14:08.456Z,97.87
2023-05-09T03:15:40.085Z,98.36
2023-05-09T03:17:12.946Z,98.39
2023-05-09T03:18:44.656Z,98.47
2023-05-09T03:20:16.390Z,98.43
2023-05-09T03:21:48.079Z,98.22
2023-05-09T03:23:20.011Z,98.24
2023-05-09T03:24:51.711Z,97.76
2023-05-09T03:26:23.473Z,97.57
2023-05-09T03:27:55.046Z,97.77
2023-05-09T03:29:27.647Z,97.77
2023-05-09T03:30:59.255Z,97.82
2023-05-09T03:32:32.420Z,98.13
2023-05-09T03:34:04.010Z,97.65
2023-05-09T03:35:35.652Z,97.32
2023-05-09T03:37:07.473Z,97.54
2023-05-09T03:38:43.410Z,97.08
2023-05-09T03:40:15.333Z,96.95
2023-05-09T03:41:59.130Z,97.25
2023-05-09T03:43:30.813Z,97.40
2023-05-09T03:45:02.384Z,97.38
2023-05-09T03:46:34.107Z,97.36
2023-05-09T03:48:08.560Z,97.48
2023-05-09T03:49:42.808Z,96.95
2023-05-09T03:51:16.431Z,97.23
2023-05-09T03:52:50.554Z,97.51
2023-05-09T03:54:22.356Z,97.35
2023-05-09T03:55:55.767Z,97.82
2023-05-09T03:57:27.980Z,97.67
2023-05-09T03:59:01.585Z,97.35
2023-05-09T04:00:33.636Z,97.10
2023-05-09T04:02:13.123Z,97.24
2023-05-09T04:03:45.053Z,97.31
2023-05-09T04:05:19.353Z,97.54
2023-05-09T04:06:51.750Z,97.55
2023-05-09T04:08:23.692Z,97.93
2023-05-09T04:09:58.587Z,98.45
2023-05-09T04:11:30.619Z,98.41
2023-05-09T04:13:03.413Z,98.31
2023-05-09T04:14:35.506Z,98.70
2023-05-09T04:16:07.303Z,98.79
2023-05-09T04:17:39.547Z,98.63
2023-05-09T04:19:11.237Z,98.11
2023-05-09T04:20:43.191Z,98.35
2023-05-09T04:22:15.236Z,98.26
2023-05-09T04:23:46.917Z,98.14
2023-05-09T04:25:20.207Z,97.88
2023-05-09T04:26:52.756Z,97.80
2023-05-09T04:28:27.312Z,97.84
2023-05-09T04:30:00.291Z,97.46
2023-05-09T04:31:32.039Z,97.29
2023-05-09T04:33:04.452Z,97.56
2023-05-09T04:34:36.056Z,97.37
2023-05-09T04:36:14.012Z,97.33
2023-05-09T04:37:45.691Z,97.18
2023-05-09T04:39:17.667Z,97.09
2023-05-09T04:40:58.610Z,96.52
2023-05-09T04:42:33.386Z,96.29
2023-05-09T04:44:05.446Z,97.00
2023-05-09T04:45:37.104Z,97.13
2023-05-09T04:47:08.750Z,97.17
2023-05-09T04:48:40.609Z,96.51
2023-05-09T04:50:12.400Z,96.25
2023-05-09T04:51:44.018Z,96.30
2023-05-09T04:53:15.632Z,96.45
2023-05-09T04:54:47.400Z,96.41
2023-05-09T04:56:22.638Z,96.03
2023-05-09T04:57:54.789Z,96.08
2023-05-09T04:59:26.413Z,96.20
2023-05-09T05:00:58.109Z,96.54
2023-05-09T05:02:30.921Z,96.20
2023-05-09T05:04:02.560Z,95.65
2023-05-09T05:05:37.605Z,96.03
2023-05-09T05:07:10.191Z,96.01
2023-05-09T05:08:41.872Z,96.00
2023-05-09T05:10:13.911Z,95.81
2023-05-09T05:11:58.739Z,96.24
2023-05-09T05:13:32.926Z,96.86
2023-05-09T05:15:06.824Z,97.89
2023-05-09T05:16:39.185Z,97.60
2023-05-09T05:18:11.208Z,97.93
2023-05-09T05:19:43.505Z,98.01
2023-05-09T05:21:16.407Z,97.89
2023-05-09T05:22:48.901Z,97.14
2023-05-09T05:24:20.770Z,96.53
2023-05-09T05:25:52.786Z,95.83
2023-05-09T05:27:24.586Z,95.67
2023-05-09T05:28:57.217Z,95.76
2023-05-09T05:30:32.124Z,95.99
2023-05-09T05:32:05.971Z,96.44
2023-05-09T05:33:37.727Z,96.31
2023-05-09T05:35:13.410Z,95.33
2023-05-09T05:36:45.664Z,94.91
2023-05-09T05:38:17.362Z,95.31
2023-05-09T05:39:53.246Z,94.57
2023-05-09T05:41:24.946Z,94.82
2023-05-09T05:42:57.093Z,93.78
2023-05-09T05:44:29.357Z,93.09
2023-05-09T05:46:01.235Z,93.05
2023-05-09T05:47:35.677Z,93.58
2023-05-09T05:49:08.042Z,93.33
2023-05-09T05:50:39.902Z,93.01
2023-05-09T05:52:11.548Z,91.89
2023-05-09T05:53:43.215Z,91.28
2023-05-09T05:55:15.066Z,91.50
2023-05-09T05:56:47.026Z,91.36
2023-05-09T05:58:18.670Z,91.65
2023-05-09T05:59:51.225Z,90.88
2023-05-09T06:01:22.865Z,91.85
2023-05-09T06:02:55.160Z,90.35
2023-05-09T06:04:32.539Z,89.23
2023-05-09T06:06:04.680Z,88.63
2023-05-09T06:07:36.800Z,88.21
2023-05-09T06:09:08.672Z,86.47
2023-05-09T06:10:40.788Z,80.76
2023-05-09T06:12:16.426Z,77.69
2023-05-09T06:13:47.978Z,70.89
2023-05-09T06:15:19.543Z,64.98
2023-05-09T06:16:54.345Z,67.47
2023-05-09T06:18:26.178Z,71.72
2023-05-09T06:19:58.822Z,77.29
2023-05-09T06:21:30.536Z,79.95
2023-05-09T06:23:02.142Z,80.22
2023-05-09T06:24:36.299Z,80.83
2023-05-09T06:26:08.500Z,80.53
2023-05-09T06:27:40.745Z,78.05
2023-05-09T06:29:14.255Z,75.92
2023-05-09T06:30:45.978Z,77.19
2023-05-09T06:32:18.772Z,78.38
2023-05-09T06:33:50.946Z,77.87
2023-05-09T06:35:23.044Z,78.24
2023-05-09T06:36:54.926Z,79.89
2023-05-09T06:38:26.942Z,79.31
2023-05-09T06:39:58.768Z,77.22
2023-05-09T06:41:30.988Z,74.86
2023-05-09T06:43:02.782Z,71.26
2023-05-09T06:44:34.873Z,69.12
2023-05-09T06:46:07.444Z,62.32
2023-05-09T06:47:39.349Z,57.47
2023-05-09T06:49:11.100Z,56.16
2023-05-09T06:50:42.769Z,58.10
2023-05-09T06:52:15.783Z,64.67
2023-05-09T06:53:48.017Z,69.85
2023-05-09T06:55:19.688Z,70.52
2023-05-09T06:56:51.314Z,66.84
2023-05-09T06:58:23.265Z,63.02
2023-05-09T06:59:54.827Z,65.37
2023-05-09T07:01:27.035Z,67.87
2023-05-09T07:02:58.821Z,68.24
2023-05-09T07:04:30.519Z,71.51
2023-05-09T07:06:02.034Z,73.17
2023-05-09T07:07:33.559Z,73.09
2023-05-09T07:09:05.071Z,74.78
2023-05-09T07:10:36.760Z,73.14
2023-05-09T07:12:08.541Z,72.63
2023-05-09T07:13:40.127Z,71.54
2023-05-09T07:15:11.977Z,71.64
2023-05-09T07:16:43.768Z,71.83
2023-05-09T07:18:15.402Z,73.79
2023-05-09T07:19:46.963Z,74.10
2023-05-09T07:21:18.516Z,73.18
2023-05-09T07:22:50.149Z,73.46
2023-05-09T07:24:21.720Z,73.73
2023-05-09T07:25:59.595Z,74.03
2023-05-09T07:27:31.171Z,74.81
2023-05-09T07:29:02.965Z,75.19
2023-05-09T07:30:34.570Z,73.95
2023-05-09T07:32:06.284Z,73.56
2023-05-09T07:33:38.164Z,74.50
2023-05-09T07:35:09.859Z,74.74
2023-05-09T07:36:41.413Z,75.66
2023-05-09T07:38:13.279Z,75.06
2023-05-09T07:39:44.945Z,74.54
2023-05-09T07:41:16.735Z,74.15
2023-05-09T07:42:50.011Z,74.30
2023-05-09T07:44:22.335Z,73.53
2023-05-09T07:45:54.075Z,75.53
2023-05-09T07:47:25.986Z,73.42
2023-05-09T07:48:57.607Z,70.60
2023-05-09T07:50:29.658Z,71.32
2023-05-09T07:52:02.065Z,72.12
2023-05-09T07:53:33.911Z,70.87
2023-05-09T07:55:06.868Z,70.62
2023-05-09T07:56:38.590Z,71.17
2023-05-09T07:58:10.351Z,71.99
2023-05-09T07:59:42.486Z,71.21
2023-05-09T08:01:14.149Z,72.04
2023-05-09T08:02:45.871Z,71.85
2023-05-09T08:04:17.585Z,71.69
2023-05-09T08:05:49.516Z,72.22
2023-05-09T08:07:21.224Z,71.88
2023-05-09T08:08:52.826Z,73.94
2023-05-09T08:10:24.983Z,74.36
2023-05-09T08:11:56.577Z,73.22
2023-05-09T08:13:28.282Z,73.43
2023-05-09T08:14:59.872Z,72.92
2023-05-09T08:16:31.538Z,72.67
2023-05-09T08:18:03.255Z,72.44
2023-05-09T08:19:34.880Z,71.84
2023-05-09T08:21:06.730Z,72.69
2023-05-09T08:22:39.235Z,71.15
2023-05-09T08:24:10.787Z,70.50
2023-05-09T08:25:43.093Z,70.92
2023-05-09T08:27:15.483Z,70.12
2023-05-09T08:28:47.109Z,70.23
2023-05-09T08:30:18.836Z,70.17
2023-05-09T08:31:51.277Z,70.60
2023-05-09T08:33:23.527Z,71.30
2023-05-09T08:34:55.196Z,69.73
2023-05-09T08:36:26.766Z,68.71
2023-05-09T08:37:58.346Z,70.32
2023-05-09T08:39:30.704Z,71.14
2023-05-09T08:41:02.922Z,69.78
2023-05-09T08:42:37.424Z,70.17
2023-05-09T08:44:09.268Z,71.09
2023-05-09T08:45:52.355Z,71.64
2023-05-09T08:47:24.835Z,71.61
2023-05-09T08:48:57.349Z,69.99
2023-05-09T08:50:29.201Z,70.33
2023-05-09T08:52:01.529Z,70.64
2023-05-09T08:53:34.081Z,69.89
2023-05-09T08:55:06.307Z,70.30
2023-05-09T08:56:38.157Z,71.13
2023-05-09T08:58:09.764Z,71.76
2023-05-09T08:59:42.468Z,71.07
2023-05-09T09:01:14.457Z,71.62
2023-05-09T09:02:46.595Z,71.94
2023-05-09T09:04:18.288Z,71.59
2023-05-09T09:05:52.772Z,71.73
2023-05-09T09:07:27.669Z,71.51
2023-05-09T09:09:01.039Z,71.25
2023-05-09T09:10:33.529Z,70.87
2023-05-09T09:12:09.859Z,70.55
2023-05-09T09:13:43.709Z,70.24
2023-05-09T09:15:20.133Z,70.33
2023-05-09T09:16:55.182Z,69.90
2023-05-09T09:18:30.536Z,69.90
2023-05-09T09:20:05.667Z,68.98
2023-05-09T09:21:38.611Z,68.39
2023-05-09T09:23:13.087Z,67.03
2023-05-09T09:24:45.288Z,67.73
2023-05-09T09:26:16.966Z,68.27
2023-05-09T09:27:48.567Z,68.04
2023-05-09T09:29:21.070Z,67.50
2023-05-09T09:30:52.732Z,67.64
2023-05-09T09:32:33.642Z,68.52
2023-05-09T09:34:05.241Z,67.72
2023-05-09T09:35:40.369Z,66.53
2023-05-09T09:37:23.212Z,67.08
2023-05-09T09:39:02.358Z,67.66
2023-05-09T09:40:33.979Z,67.25
2023-05-09T09:42:12.192Z,66.34
2023-05-09T09:43:46.769Z,66.61
2023-05-09T09:45:25.284Z,67.32
2023-05-09T09:46:57.057Z,66.28
2023-05-09T09:48:34.012Z,65.60
2023-05-09T09:50:13.152Z,66.14
2023-05-09T09:51:45.396Z,67.35
2023-05-09T09:53:20.301Z,67.96
2023-05-09T09:54:56.564Z,66.50
2023-05-09T09:56:46.162Z,65.54
2023-05-09T09:58:25.158Z,65.66
2023-05-09T10:00:00.836Z,65.31
2023-05-09T10:01:32.469Z,63.98
2023-05-09T10:03:04.313Z,63.17
2023-05-09T10:04:41.799Z,63.60
2023-05-09T10:06:15.217Z,64.28
2023-05-09T10:07:50.400Z,61.85
2023-05-09T10:09:23.771Z,63.44
2023-05-09T10:10:55.524Z,64.75
2023-05-09T10:12:27.396Z,63.43
2023-05-09T10:13:59.020Z,63.05
2023-05-09T10:15:41.392Z,62.59
2023-05-09T10:17:19.853Z,63.62
2023-05-09T10:18:52.703Z,64.95
2023-05-09T10:20:25.522Z,64.51
2023-05-09T10:22:05.584Z,63.13
2023-05-09T10:23:38.386Z,62.75
2023-05-09T10:25:20.609Z,62.22
2023-05-09T10:26:56.153Z,61.16
2023-05-09T10:28:31.797Z,60.99
2023-05-09T10:30:15.515Z,62.30
2023-05-09T10:31:48.746Z,61.98
2023-05-09T10:33:27.803Z,60.04
2023-05-09T10:35:05.156Z,60.97
2023-05-09T10:36:37.616Z,60.55
2023-05-09T10:38:12.441Z,59.62
2023-05-09T10:39:44.283Z,59.08
2023-05-09T10:41:21.865Z,57.65
2023-05-09T10:42:53.901Z,58.49
2023-05-09T10:44:27.071Z,58.86
2023-05-09T10:45:59.192Z,57.85
2023-05-09T10:47:33.223Z,60.04
2023-05-09T10:49:05.112Z,60.60
2023-05-09T10:50:40.248Z,58.14
2023-05-09T10:52:12.397Z,57.80
2023-05-09T10:53:44.198Z,57.82
2023-05-09T10:55:16.111Z,58.10
2023-05-09T10:56:47.793Z,59.89
2023-05-09T10:58:29.893Z,57.72
2023-05-09T11:00:01.562Z,58.06
2023-05-09T11:01:35.379Z,59.33
2023-05-09T11:03:10.545Z,57.88
2023-05-09T11:04:42.337Z,57.56
2023-05-09T11:06:40.835Z,58.46
2023-05-09T11:08:26.723Z,58.90
2023-05-09T11:10:09.192Z,57.89
2023-05-09T11:11:51.505Z,58.06
2023-05-09T11:13:25.694Z,59.49
2023-05-09T11:15:06.348Z,59.37
2023-05-09T11:16:57.763Z,60.68
2023-05-09T11:18:30.732Z,60.64
2023-05-09T11:20:08.781Z,59.60
2023-05-09T11:22:00.885Z,61.32
2023-05-09T11:23:33.021Z,59.66
2023-05-09T11:25:05.813Z,59.26
2023-05-09T11:26:37.458Z,59.79
2023-05-09T11:28:09.275Z,59.13
2023-05-09T11:29:46.515Z,61.19
2023-05-09T11:31:19.050Z,61.88
2023-05-09T11:32:51.798Z,62.48
2023-05-09T11:34:24.109Z,62.70
2023-05-09T11:36:29.556Z,61.72
2023-05-09T11:38:02.059Z,65.57
2023-05-09T11:39:33.639Z,63.34
2023-05-09T11:41:05.955Z,64.93
2023-05-09T11:42:43.647Z,65.81
2023-05-09T11:44:17.072Z,67.07
2023-05-09T11:45:49.023Z,66.88
2023-05-09T11:47:21.785Z,67.27
2023-05-09T11:48:53.744Z,68.46
2023-05-09T11:50:25.625Z,69.79
2023-05-09T11:51:59.740Z,71.69
2023-05-09T11:53:32.365Z,72.08
2023-05-09T11:55:08.960Z,72.01
2023-05-09T11:56:42.038Z,71.07
2023-05-09T11:58:13.890Z,71.81
2023-05-09T11:59:46.454Z,70.86
2023-05-09T12:01:19.337Z,74.24
2023-05-09T12:02:53.434Z,71.21
2023-05-09T12:04:25.421Z,71.11
2023-05-09T12:05:57.156Z,73.88
2023-05-09T12:07:29.009Z,69.49
2023-05-09T12:09:02.285Z,66.95
2023-05-09T12:10:40.946Z,65.52
2023-05-09T12:12:14.535Z,67.61
2023-05-09T12:13:49.121Z,65.43
2023-05-09T12:15:21.793Z,66.46
2023-05-09T12:16:53.750Z,62.44
2023-05-09T12:18:25.334Z,61.23
2023-05-09T12:19:59.899Z,59.81
2023-05-09T12:21:31.595Z,63.60
2023-05-09T12:23:03.485Z,64.00
2023-05-09T12:24:36.874Z,60.79
2023-05-09T12:26:08.598Z,61.89
2023-05-09T12:27:41.758Z,62.02
2023-05-09T12:29:13.716Z,58.29
2023-05-09T12:30:45.707Z,59.61
2023-05-09T12:32:18.601Z,57.82
2023-05-09T12:33:50.391Z,56.08
2023-05-09T12:35:23.543Z,55.35
2023-05-09T12:36:55.137Z,56.23
2023-05-09T12:38:27.078Z,58.51
2023-05-09T12:40:12.604Z,55.99
2023-05-09T12:41:57.385Z,57.37
2023-05-09T12:43:34.065Z,59.48
2023-05-09T12:45:08.743Z,61.95
2023-05-09T12:46:40.467Z,59.55
2023-05-09T12:48:13.641Z,57.37
2023-05-09T12:49:50.004Z,59.77
2023-05-09T12:51:22.493Z,59.16
2023-05-09T12:53:02.655Z,60.66
2023-05-09T12:54:35.398Z,59.21
2023-05-09T12:56:34.157Z,60.08
2023-05-09T12:58:05.804Z,60.90
2023-05-09T12:59:37.461Z,60.52
2023-05-09T13:01:09.531Z,61.14
2023-05-09T13:02:42.176Z,61.26
2023-05-09T13:04:14.028Z,62.81
2023-05-09T13:05:54.512Z,64.80
2023-05-09T13:07:26.359Z,64.79
2023-05-09T13:09:02.793Z,67.09
2023-05-09T13:10:34.719Z,68.58
2023-05-09T13:12:09.981Z,71.59
2023-05-09T13:13:42.495Z,71.93
2023-05-09T13:15:19.940Z,74.19
2023-05-09T13:16:51.743Z,73.22
2023-05-09T13:18:24.446Z,74.87
2023-05-09T13:19:56.561Z,76.96
2023-05-09T13:21:28.159Z,75.61
2023-05-09T13:22:59.926Z,73.10
2023-05-09T13:24:31.612Z,71.79
2023-05-09T13:26:03.619Z,73.26
2023-05-09T13:27:35.792Z,72.06
2023-05-09T13:29:07.878Z,71.01
2023-05-09T13:30:39.740Z,67.44
2023-05-09T13:32:11.436Z,68.92
2023-05-09T13:33:42.997Z,69.91
2023-05-09T13:35:15.346Z,70.78
2023-05-09T13:36:46.901Z,70.01
2023-05-09T13:38:18.545Z,70.58
2023-05-09T13:39:50.227Z,70.45
2023-05-09T13:41:23.934Z,71.78
2023-05-09T13:42:55.902Z,70.43
2023-05-09T13:44:28.926Z,67.58
2023-05-09T13:46:00.810Z,69.64
2023-05-09T13:47:32.718Z,68.97
2023-05-09T13:49:04.495Z,70.39
2023-05-09T13:50:36.261Z,67.12
2023-05-09T13:52:09.011Z,68.97
2023-05-09T13:53:40.860Z,65.32
2023-05-09T13:55:12.522Z,63.22
2023-05-09T13:56:44.289Z,63.65
2023-05-09T13:58:16.056Z,63.09
2023-05-09T13:59:47.698Z,64.76
2023-05-09T14:01:19.443Z,65.49
2023-05-09T14:02:51.436Z,65.94
2023-05-09T14:04:23.160Z,66.07
2023-05-09T14:05:54.760Z,66.40
2023-05-09T14:07:26.522Z,66.29
2023-05-09T14:08:58.200Z,64.35
2023-05-09T14:10:29.803Z,63.68
2023-05-09T14:12:01.596Z,61.51
2023-05-09T14:13:33.300Z,61.74
2023-05-09T14:15:07.102Z,63.23
2023-05-09T14:16:38.869Z,64.13
2023-05-09T14:18:11.441Z,64.96
2023-05-09T14:19:44.083Z,63.87
2023-05-09T14:21:15.684Z,62.37
2023-05-09T14:22:48.216Z,60.55
2023-05-09T14:24:19.781Z,58.76
2023-05-09T14:25:51.768Z,58.79
2023-05-09T14:27:24.115Z,59.76
2023-05-09T14:28:55.756Z,58.84
2023-05-09T14:30:27.981Z,59.94
2023-05-09T14:32:00.118Z,63.81
2023-05-09T14:33:32.829Z,65.00
2023-05-09T14:35:04.777Z,60.77
2023-05-09T14:36:37.438Z,61.21
2023-05-09T14:38:09.878Z,68.22
2023-05-09T14:39:42.567Z,63.79
2023-05-09T14:41:15.254Z,62.11
2023-05-09T14:42:47.605Z,61.33
2023-05-09T14:44:19.757Z,66.07
2023-05-09T14:45:51.736Z,64.17
2023-05-09T14:47:23.315Z,65.97
2023-05-09T14:48:57.429Z,63.60
2023-05-09T14:50:29.545Z,62.81
2023-05-09T14:52:01.241Z,63.12
2023-05-09T14:53:35.854Z,65.20
2023-05-09T14:55:08.239Z,63.08
2023-05-09T14:56:40.339Z,63.63
2023-05-09T14:58:13.904Z,59.44
2023-05-09T14:59:45.664Z,60.38
2023-05-09T15:01:17.325Z,62.37
2023-05-09T15:02:49.635Z,61.50
2023-05-09T15:04:21.460Z,65.16
2023-05-09T15:05:53.397Z,63.90
2023-05-09T15:07:25.003Z,64.85
2023-05-09T15:08:56.750Z,64.53
2023-05-09T15:10:28.492Z,63.49
2023-05-09T15:12:00.259Z,63.25
2023-05-09T15:13:32.412Z,62.51
2023-05-09T15:15:15.327Z,64.26
2023-05-09T15:16:47.477Z,64.72
2023-05-09T15:18:20.169Z,65.05
2023-05-09T15:19:52.178Z,64.97
2023-05-09T15:21:24.849Z,66.60
2023-05-09T15:22:56.687Z,68.42
2023-05-09T15:24:28.431Z,67.11
2023-05-09T15:26:00.379Z,69.39
2023-05-09T15:27:32.147Z,69.57
2023-05-09T15:29:03.891Z,68.81
2023-05-09T15:30:38.342Z,66.66
2023-05-09T15:32:10.251Z,66.00
2023-05-09T15:33:42.037Z,68.83
2023-05-09T15:35:14.114Z,65.37
2023-05-09T15:36:46.279Z,62.27
2023-05-09T15:38:19.349Z,63.34
2023-05-09T15:39:51.313Z,65.85
2023-05-09T15:41:23.935Z,62.61
2023-05-09T15:42:56.036Z,66.32
2023-05-09T15:44:27.920Z,66.13
2023-05-09T15:45:59.664Z,65.88
2023-05-09T15:47:31.447Z,67.91
2023-05-09T15:49:03.322Z,68.58
2023-05-09T15:50:35.090Z,67.42
2023-05-09T15:52:07.976Z,66.93
2023-05-09T15:53:39.965Z,67.10
2023-05-09T15:55:13.078Z,67.26
2023-05-09T15:56:44.933Z,68.15
2023-05-09T15:58:17.337Z,68.93
2023-05-09T15:59:49.277Z,68.34
2023-05-09T16:01:21.277Z,68.07
2023-05-09T16:02:53.180Z,68.28
2023-05-09T16:04:24.871Z,68.36
2023-05-09T16:05:57.658Z,69.13
2023-05-09T16:07:31.106Z,67.88
2023-05-09T16:09:04.716Z,67.08
2023-05-09T16:10:36.671Z,68.69
2023-05-09T16:12:09.350Z,68.11
2023-05-09T16:13:41.082Z,67.67
2023-05-09T16:15:12.880Z,67.50
2023-05-09T16:16:44.738Z,70.33
2023-05-09T16:18:16.563Z,71.56
2023-05-09T16:19:48.435Z,71.47
2023-05-09T16:21:21.805Z,71.63
2023-05-09T16:22:53.731Z,72.05
2023-05-09T16:24:25.695Z,71.20
2023-05-09T16:25:57.569Z,72.07
2023-05-09T16:27:29.513Z,72.85
2023-05-09T16:29:01.421Z,74.07
2023-05-09T16:30:33.169Z,74.25
2023-05-09T16:32:05.247Z,73.73
2023-05-09T16:33:37.177Z,72.64
2023-05-09T16:35:09.245Z,73.04
2023-05-09T16:36:41.377Z,74.84
2023-05-09T16:38:13.732Z,76.43
2023-05-09T16:39:46.189Z,76.13
2023-05-09T16:41:17.916Z,76.66
2023-05-09T16:42:49.685Z,79.15
2023-05-09T16:44:21.897Z,77.31
2023-05-09T16:45:53.652Z,77.51
2023-05-09T16:47:25.702Z,77.00
2023-05-09T16:48:58.181Z,74.99
2023-05-09T16:50:30.079Z,75.11
2023-05-09T16:52:01.710Z,75.73
2023-05-09T16:53:33.432Z,76.30
2023-05-09T16:55:06.018Z,78.26
2023-05-09T16:56:37.980Z,74.35
2023-05-09T16:58:09.981Z,74.80
2023-05-09T16:59:41.950Z,74.11
2023-05-09T17:01:13.728Z,75.83
2023-05-09T17:02:45.663Z,76.30
2023-05-09T17:04:17.418Z,76.40
2023-05-09T17:05:49.202Z,75.32
2023-05-09T17:07:21.115Z,74.86
2023-05-09T17:08:53.420Z,74.52
2023-05-09T17:10:26.493Z,74.70
2023-05-09T17:11:58.933Z,77.23
2023-05-09T17:13:31.265Z,79.75
2023-05-09T17:15:03.433Z,80.89
2023-05-09T17:16:37.344Z,78.73
2023-05-09T17:18:09.870Z,81.19
2023-05-09T17:19:41.752Z,83.31
2023-05-09T17:21:16.999Z,83.92
2023-05-09T17:22:48.695Z,84.21
2023-05-09T17:24:20.361Z,82.41
2023-05-09T17:25:52.310Z,84.74
2023-05-09T17:27:24.299Z,85.15
2023-05-09T17:28:56.068Z,83.98
2023-05-09T17:30:27.858Z,82.51
2023-05-09T17:32:02.473Z,84.97
2023-05-09T17:33:34.390Z,85.32
2023-05-09T17:35:06.812Z,85.42
2023-05-09T17:36:38.498Z,85.17
2023-05-09T17:38:10.100Z,84.23
2023-05-09T17:39:42.649Z,84.30
2023-05-09T17:41:14.430Z,85.43
2023-05-09T17:42:46.088Z,85.42
2023-05-09T17:44:18.963Z,84.21
2023-05-09T17:45:52.412Z,85.46
2023-05-09T17:47:24.151Z,85.62
2023-05-09T17:48:56.635Z,84.98
2023-05-09T17:50:28.605Z,85.27
2023-05-09T17:52:00.472Z,85.63
2023-05-09T17:53:32.432Z,85.41
2023-05-09T17:55:04.454Z,86.67
2023-05-09T17:56:36.531Z,85.90
2023-05-09T17:58:08.524Z,85.90
2023-05-09T17:59:41.473Z,86.80
2023-05-09T18:01:13.528Z,87.60
2023-05-09T18:02:45.588Z,86.41
2023-05-09T18:04:17.282Z,87.90
2023-05-09T18:05:49.007Z,86.83
2023-05-09T18:07:21.000Z,87.14
2023-05-09T18:08:52.765Z,88.08
2023-05-09T18:10:24.422Z,87.92
2023-05-09T18:11:57.921Z,87.25
2023-05-09T18:13:29.781Z,86.96
2023-05-09T18:15:02.211Z,85.76
2023-05-09T18:16:34.735Z,86.01
2023-05-09T18:18:12.217Z,86.72
2023-05-09T18:19:45.844Z,85.67
2023-05-09T18:21:17.648Z,84.80
2023-05-09T18:22:49.815Z,84.83
2023-05-09T18:24:22.659Z,84.42
2023-05-09T18:25:55.738Z,84.09
2023-05-09T18:27:27.603Z,84.79
2023-05-09T18:28:59.381Z,84.86
2023-05-09T18:30:31.310Z,85.25
2023-05-09T18:32:03.740Z,84.91
2023-05-09T18:33:39.171Z,85.36
2023-05-09T18:35:11.439Z,85.55
2023-05-09T18:36:43.371Z,85.04
2023-05-09T18:38:15.463Z,85.11
2023-05-09T18:39:48.089Z,85.36
2023-05-09T18:41:20.198Z,84.79
2023-05-09T18:42:52.079Z,85.14
2023-05-09T18:44:24.052Z,85.96
2023-05-09T18:45:57.135Z,86.51
2023-05-09T18:47:29.451Z,85.90
2023-05-09T18:49:04.116Z,85.57
2023-05-09T18:50:36.632Z,86.28
2023-05-09T18:52:09.566Z,86.83
2023-05-09T18:53:43.095Z,85.81
2023-05-09T18:55:16.018Z,86.58
2023-05-09T18:56:48.275Z,86.53
2023-05-09T18:58:21.330Z,86.69
2023-05-09T18:59:54.225Z,87.26
2023-05-09T19:01:27.302Z,88.11
2023-05-09T19:02:59.965Z,87.62
2023-05-09T19:04:32.496Z,87.46
2023-05-09T19:06:05.311Z,88.12
2023-05-09T19:07:39.075Z,87.91
2023-05-09T19:09:12.922Z,87.36
2023-05-09T19:10:46.035Z,88.02
2023-05-09T19:12:19.742Z,88.70
2023-05-09T19:13:54.014Z,88.71
2023-05-09T19:15:27.268Z,88.48
2023-05-09T19:17:01.017Z,88.39
2023-05-09T19:18:34.376Z,88.31
2023-05-09T19:20:09.108Z,87.98
2023-05-09T19:21:42.505Z,88.16
2023-05-09T19:23:15.182Z,88.22
2023-05-09T19:24:48.828Z,88.34
2023-05-09T19:26:22.618Z,88.54
2023-05-09T19:27:54.677Z,88.73
2023-05-09T19:29:27.016Z,88.88
2023-05-09T19:31:00.027Z,89.33
2023-05-09T19:32:32.948Z,89.16
2023-05-09T19:34:06.607Z,89.19
2023-05-09T19:35:39.414Z,88.80
2023-05-09T19:37:12.532Z,88.64
2023-05-09T19:38:46.247Z,89.38
2023-05-09T19:40:20.110Z,88.95
2023-05-09T19:41:52.772Z,89.67
2023-05-09T19:43:24.683Z,90.34
2023-05-09T19:44:57.954Z,91.37
2023-05-09T19:46:30.710Z,91.18
2023-05-09T19:48:03.637Z,90.90
2023-05-09T19:49:35.787Z,91.43
2023-05-09T19:51:12.670Z,91.98
2023-05-09T19:52:46.010Z,92.29
2023-05-09T19:54:18.670Z,91.84
2023-05-09T19:55:51.004Z,92.15
2023-05-09T19:57:23.761Z,92.24
2023-05-09T19:58:57.006Z,92.23
2023-05-09T20:00:30.464Z,91.63
2023-05-09T20:02:03.697Z,91.36